createdAt,value
2019-05-02T00:00:59.729Z,39.63
2019-05-02T00:03:29.537Z,44.00
2019-05-02T00:05:56.782Z,45.67
2019-05-02T00:08:24.134Z,37.30
2019-05-02T00:10:51.572Z,38.37
2019-05-02T00:13:19.423Z,41.90
2019-05-02T00:15:48.712Z,42.83
2019-05-02T00:18:16.840Z,37.43
2019-05-02T00:20:45.329Z,39.60
2019-05-02T00:23:13.040Z,42.85
2019-05-02T00:25:40.794Z,37.07
2019-05-02T00:28:12.516Z,38.63
2019-05-02T00:30:38.031Z,37.63
2019-05-02T00:33:06.035Z,39.73
2019-05-02T00:35:33.367Z,47.20
2019-05-02T00:38:02.435Z,54.17
2019-05-02T00:40:29.788Z,62.67
2019-05-02T00:42:58.258Z,50.63
2019-05-02T00:45:26.166Z,59.90
2019-05-02T00:48:00.367Z,63.57
2019-05-02T00:50:30.587Z,67.50
2019-05-02T00:52:57.839Z,65.50
2019-05-02T00:55:29.001Z,64.80
2019-05-02T00:57:55.675Z,54.30
2019-05-02T01:00:23.403Z,54.77
2019-05-02T01:02:55.259Z,57.50
2019-05-02T01:05:22.519Z,57.03
2019-05-02T01:07:49.791Z,66.23
2019-05-02T01:10:21.112Z,64.60
2019-05-02T01:12:46.331Z,71.47
2019-05-02T01:15:13.959Z,72.87
2019-05-02T01:17:41.175Z,68.43
2019-05-02T01:20:08.631Z,80.37
2019-05-02T01:22:35.912Z,80.20
2019-05-02T01:25:03.434Z,85.03
2019-05-02T01:27:48.831Z,85.73
2019-05-02T01:30:23.089Z,94.30
2019-05-02T01:33:06.465Z,95.87
2019-05-02T01:35:40.587Z,86.50
2019-05-02T01:38:19.631Z,95.20
2019-05-02T01:40:53.082Z,96.63
2019-05-02T01:43:25.535Z,91.90
2019-05-02T01:45:53.140Z,90.83
2019-05-02T01:48:20.501Z,97.27
2019-05-02T01:50:47.836Z,85.73
2019-05-02T01:53:15.083Z,104.67
2019-05-02T01:55:42.340Z,99.73
2019-05-02T01:58:09.632Z,103.97
2019-05-02T02:00:40.848Z,106.60
2019-05-02T02:03:09.062Z,97.73
2019-05-02T02:05:35.284Z,107.10
2019-05-02T02:08:02.519Z,103.67
2019-05-02T02:10:29.772Z,95.93
2019-05-02T02:13:04.640Z,78.73
2019-05-02T02:15:29.043Z,55.97
2019-05-02T02:17:55.244Z,64.27
2019-05-02T02:20:24.888Z,57.20
2019-05-02T02:23:14.095Z,54.50
2019-05-02T02:25:46.459Z,57.00
2019-05-02T02:28:13.713Z,71.30
2019-05-02T02:30:40.932Z,61.53
2019-05-02T02:33:09.729Z,68.67
2019-05-02T02:35:37.377Z,63.57
2019-05-02T02:38:04.605Z,70.07
2019-05-02T02:40:33.727Z,58.67
2019-05-02T02:43:12.805Z,59.43
2019-05-02T02:46:02.129Z,56.47
2019-05-02T02:48:33.897Z,65.50
2019-05-02T02:50:58.971Z,59.10
2019-05-02T02:53:32.006Z,63.77
2019-05-02T02:56:02.060Z,64.53
2019-05-02T02:58:30.327Z,76.73
2019-05-02T03:00:57.589Z,65.00
2019-05-02T03:03:27.763Z,67.87
2019-05-02T03:05:58.686Z,69.83
2019-05-02T03:08:23.861Z,61.20
2019-05-02T03:10:51.105Z,58.63
2019-05-02T03:14:05.524Z,60.70
2019-05-02T03:16:27.184Z,62.60
2019-05-02T03:18:54.468Z,60.00
2019-05-02T03:21:22.514Z,70.73
2019-05-02T03:24:01.341Z,65.03
2019-05-02T03:26:19.264Z,71.37
2019-05-02T03:28:57.688Z,74.00
2019-05-02T03:31:28.276Z,79.67
2019-05-02T03:33:54.482Z,74.43
2019-05-02T03:36:35.401Z,88.87
2019-05-02T03:38:52.205Z,87.80
2019-05-02T03:41:20.913Z,90.87
2019-05-02T03:43:49.111Z,98.30
2019-05-02T03:46:20.784Z,101.97
2019-05-02T03:48:45.617Z,103.70
2019-05-02T03:51:21.586Z,91.67
2019-05-02T03:53:42.247Z,98.57
2019-05-02T03:56:12.031Z,102.00
2019-05-02T03:58:38.778Z,110.07
2019-05-02T04:01:06.111Z,104.93
2019-05-02T04:03:40.684Z,103.20
2019-05-02T04:06:03.367Z,110.10
2019-05-02T04:08:31.848Z,107.60
2019-05-02T04:11:24.596Z,110.90
2019-05-02T04:13:55.520Z,102.70
2019-05-02T04:16:27.391Z,112.57
2019-05-02T04:19:01.450Z,107.03
2019-05-02T04:21:28.873Z,109.03
2019-05-02T04:24:07.251Z,115.60
2019-05-02T04:26:27.001Z,119.33
2019-05-02T04:28:54.424Z,113.93
2019-05-02T04:31:24.777Z,112.37
2019-05-02T04:33:50.909Z,109.30
2019-05-02T04:36:18.187Z,115.73
2019-05-02T04:38:51.097Z,116.00
2019-05-02T04:41:21.415Z,126.20
2019-05-02T04:43:54.435Z,113.23
2019-05-02T04:46:22.026Z,112.83
2019-05-02T04:48:48.634Z,116.13
2019-05-02T04:51:16.310Z,119.17
2019-05-02T04:53:45.069Z,114.73
2019-05-02T04:56:10.690Z,116.40
2019-05-02T04:58:40.752Z,112.67
2019-05-02T05:01:09.928Z,121.53
2019-05-02T05:03:37.667Z,117.07
2019-05-02T05:06:07.961Z,111.87
2019-05-02T05:08:34.246Z,119.13
2019-05-02T05:11:01.616Z,116.97
2019-05-02T05:13:29.110Z,109.03
2019-05-02T05:15:57.351Z,108.63
2019-05-02T05:18:27.262Z,113.73
2019-05-02T05:20:54.322Z,130.40
2019-05-02T05:23:32.679Z,116.67
2019-05-02T05:26:03.382Z,113.87
2019-05-02T05:28:29.182Z,125.70
2019-05-02T05:30:58.223Z,125.33
2019-05-02T05:33:25.520Z,121.47
2019-05-02T05:35:52.826Z,112.37
2019-05-02T05:38:23.089Z,116.67
2019-05-02T05:40:50.312Z,132.00
2019-05-02T05:43:20.253Z,118.53
2019-05-02T05:45:53.393Z,128.83
2019-05-02T05:48:18.261Z,125.20
2019-05-02T05:50:45.111Z,124.97
2019-05-02T05:53:16.523Z,103.30
2019-05-02T05:55:41.531Z,107.80
2019-05-02T05:58:15.368Z,103.33
2019-05-02T06:00:38.139Z,123.77
2019-05-02T06:03:13.054Z,128.63
2019-05-02T06:05:40.471Z,126.40
2019-05-02T06:08:03.735Z,134.43
2019-05-02T06:10:30.946Z,133.47
2019-05-02T06:12:58.158Z,129.57
2019-05-02T06:15:25.426Z,141.40
2019-05-02T06:17:52.755Z,132.53
2019-05-02T06:20:20.011Z,131.83
2019-05-02T06:22:47.234Z,125.20
2019-05-02T06:25:14.883Z,129.80
2019-05-02T06:27:42.219Z,137.80
2019-05-02T06:30:10.421Z,143.90
2019-05-02T06:32:37.658Z,133.47
2019-05-02T06:35:05.566Z,134.03
2019-05-02T06:37:32.799Z,131.87
2019-05-02T06:40:03.045Z,122.67
2019-05-02T06:42:32.748Z,125.57
2019-05-02T06:44:59.840Z,138.93
2019-05-02T06:47:27.424Z,132.50
2019-05-02T06:49:56.061Z,123.33
2019-05-02T06:52:27.212Z,144.07
2019-05-02T06:54:54.099Z,144.20
2019-05-02T06:57:24.230Z,142.60
2019-05-02T06:59:54.685Z,135.70
2019-05-02T07:02:20.444Z,141.05
2019-05-02T07:04:47.673Z,131.97
2019-05-02T07:07:14.887Z,133.57
2019-05-02T07:09:42.253Z,148.93
2019-05-02T07:12:09.885Z,143.90
2019-05-02T07:14:38.725Z,153.32
2019-05-02T07:17:32.265Z,121.20
2019-05-02T07:19:58.903Z,141.45
2019-05-02T07:22:27.688Z,139.30
2019-05-02T07:24:54.963Z,137.57
2019-05-02T07:27:22.294Z,160.03
2019-05-02T07:29:52.129Z,143.27
2019-05-02T07:32:19.237Z,149.17
2019-05-02T07:34:48.161Z,154.65
2019-05-02T07:37:15.748Z,139.57
2019-05-02T07:39:42.998Z,153.17
2019-05-02T07:42:10.235Z,135.83
2019-05-02T07:44:37.471Z,143.17
2019-05-02T07:47:04.817Z,145.10
2019-05-02T07:49:33.928Z,132.57
2019-05-02T07:52:01.256Z,129.93
2019-05-02T07:54:28.501Z,137.35
2019-05-02T07:56:55.765Z,131.70
2019-05-02T07:59:23.626Z,132.97
2019-05-02T08:01:52.183Z,132.30
2019-05-02T08:04:19.485Z,124.18
2019-05-02T08:06:46.855Z,131.47
2019-05-02T08:09:14.124Z,120.67
2019-05-02T08:11:41.475Z,120.70
2019-05-02T08:14:08.767Z,122.85
2019-05-02T08:16:36.026Z,121.40
2019-05-02T08:19:05.534Z,132.52
2019-05-02T08:21:33.923Z,125.85
2019-05-02T08:24:02.351Z,118.42
2019-05-02T08:26:48.762Z,127.78
2019-05-02T08:29:16.003Z,124.02
2019-05-02T08:31:43.257Z,122.82
2019-05-02T08:34:14.970Z,115.88
2019-05-02T08:36:39.694Z,125.95
2019-05-02T08:39:06.926Z,123.42
2019-05-02T08:41:34.159Z,120.72
2019-05-02T08:44:01.415Z,116.85
2019-05-02T08:46:28.666Z,125.20
2019-05-02T08:48:55.908Z,127.42
2019-05-02T08:51:23.124Z,128.45
2019-05-02T08:53:52.116Z,130.72
2019-05-02T08:56:21.379Z,128.38
2019-05-02T08:58:49.807Z,125.42
2019-05-02T09:01:17.421Z,121.20
2019-05-02T09:04:00.012Z,122.53
2019-05-02T09:06:17.216Z,118.75
2019-05-02T09:08:46.124Z,109.87
2019-05-02T09:11:14.303Z,123.25
2019-05-02T09:13:42.171Z,129.10
2019-05-02T09:16:09.564Z,134.43
2019-05-02T09:18:42.412Z,114.75
2019-05-02T09:21:05.924Z,120.22
2019-05-02T09:23:36.887Z,110.10
2019-05-02T09:26:02.698Z,123.40
2019-05-02T09:28:31.964Z,113.32
2019-05-02T09:31:05.029Z,118.45
2019-05-02T09:33:28.375Z,122.82
2019-05-02T09:35:55.587Z,116.53
2019-05-02T09:38:22.828Z,119.42
2019-05-02T09:40:52.535Z,131.93
2019-05-02T09:43:19.218Z,123.97
2019-05-02T09:45:46.480Z,106.07
2019-05-02T09:48:17.244Z,115.37
2019-05-02T09:50:42.904Z,109.67
2019-05-02T09:53:13.036Z,111.90
2019-05-02T09:55:43.774Z,121.90
2019-05-02T09:58:10.510Z,106.32
2019-05-02T10:00:46.576Z,104.95
2019-05-02T10:03:14.543Z,111.92
2019-05-02T10:05:43.086Z,116.22
2019-05-02T10:08:13.481Z,104.27
2019-05-02T10:10:44.323Z,91.05
2019-05-02T10:13:08.979Z,89.90
2019-05-02T10:15:36.283Z,89.55
2019-05-02T10:18:10.611Z,87.80
2019-05-02T10:20:36.502Z,98.67
2019-05-02T10:23:04.522Z,96.35
2019-05-02T10:25:38.480Z,88.80
2019-05-02T10:28:02.129Z,83.87
2019-05-02T10:30:35.491Z,82.22
2019-05-02T10:33:02.563Z,78.72
2019-05-02T10:35:37.188Z,84.20
2019-05-02T10:38:02.537Z,85.72
2019-05-02T10:40:32.007Z,91.42
2019-05-02T10:42:59.264Z,93.35
2019-05-02T10:45:26.484Z,88.72
2019-05-02T10:47:53.798Z,93.70
2019-05-02T10:50:29.206Z,79.92
2019-05-02T10:53:05.425Z,83.20
2019-05-02T10:55:33.087Z,70.50
2019-05-02T10:58:01.887Z,69.30
2019-05-02T11:00:34.338Z,62.70
2019-05-02T11:03:13.996Z,62.58
2019-05-02T11:05:48.079Z,57.50
2019-05-02T11:08:15.440Z,56.73
2019-05-02T11:10:44.115Z,50.83
2019-05-02T11:13:17.261Z,60.03
2019-05-02T11:16:05.339Z,55.50
2019-05-02T11:18:48.689Z,59.98
2019-05-02T11:21:18.821Z,62.25
2019-05-02T11:23:46.319Z,58.30
2019-05-02T11:26:20.848Z,59.75
2019-05-02T11:28:43.762Z,59.13
2019-05-02T11:31:12.463Z,61.28
2019-05-02T11:33:41.800Z,62.65
2019-05-02T11:36:09.194Z,66.85
2019-05-02T11:38:37.095Z,59.67
2019-05-02T11:41:05.647Z,53.83
2019-05-02T11:43:37.017Z,51.63
2019-05-02T11:46:07.073Z,48.83
2019-05-02T11:48:31.980Z,46.30
2019-05-02T11:50:59.379Z,59.98
2019-05-02T11:53:29.478Z,58.33
2019-05-02T11:55:58.370Z,48.90
2019-05-02T11:58:25.165Z,54.45
2019-05-02T12:00:52.528Z,55.88
2019-05-02T12:03:35.572Z,43.45
2019-05-02T12:06:02.049Z,46.00
2019-05-02T12:08:29.389Z,46.13
2019-05-02T12:10:56.686Z,47.90
2019-05-02T12:13:26.400Z,47.30
2019-05-02T12:15:53.660Z,52.25
2019-05-02T12:18:23.195Z,46.20
2019-05-02T12:20:51.793Z,42.93
2019-05-02T12:23:19.263Z,40.90
2019-05-02T12:25:46.555Z,56.55
2019-05-02T12:28:13.859Z,41.00
2019-05-02T12:30:41.945Z,40.08
2019-05-02T12:33:12.010Z,46.68
2019-05-02T12:35:39.444Z,39.70
2019-05-02T12:38:06.666Z,37.48
2019-05-02T12:40:33.914Z,25.48
2019-05-02T12:43:02.402Z,29.67
2019-05-02T12:45:29.892Z,34.98
2019-05-02T12:47:57.123Z,41.55
2019-05-02T12:50:24.392Z,37.42
2019-05-02T12:52:55.720Z,38.73
2019-05-02T12:55:25.347Z,26.95
2019-05-02T12:57:52.615Z,29.18
2019-05-02T13:00:20.058Z,33.98
2019-05-02T13:02:53.695Z,31.07
2019-05-02T13:05:22.207Z,27.22
2019-05-02T13:07:53.544Z,27.67
2019-05-02T13:10:32.702Z,28.87
2019-05-02T13:13:00.144Z,25.97
2019-05-02T13:15:30.505Z,34.67
2019-05-02T13:17:58.539Z,30.80
2019-05-02T13:20:29.427Z,29.77
2019-05-02T13:23:14.384Z,32.63
2019-05-02T13:25:48.076Z,35.98
2019-05-02T13:28:17.166Z,37.08
2019-05-02T13:30:58.384Z,28.85
2019-05-02T13:33:35.790Z,32.53
2019-05-02T13:36:02.549Z,35.68
2019-05-02T13:38:29.935Z,32.67
2019-05-02T13:40:57.328Z,38.25
2019-05-02T13:43:28.347Z,34.60
2019-05-02T13:46:12.834Z,35.55
2019-05-02T13:48:40.076Z,32.67
2019-05-02T13:51:07.359Z,30.80
2019-05-02T13:53:36.391Z,34.63
2019-05-02T13:56:32.642Z,31.75
2019-05-02T13:59:00.028Z,29.48
2019-05-02T14:01:27.271Z,29.32
2019-05-02T14:03:55.849Z,31.27
2019-05-02T14:06:30.316Z,26.82
2019-05-02T14:09:02.914Z,29.18
2019-05-02T14:11:52.631Z,29.80
2019-05-02T14:14:20.038Z,27.80
2019-05-02T14:16:47.320Z,27.32
2019-05-02T14:19:15.807Z,25.35
2019-05-02T14:21:46.500Z,28.77
2019-05-02T14:24:13.727Z,29.63
2019-05-02T14:26:43.279Z,30.37
2019-05-02T14:29:15.022Z,27.80
2019-05-02T14:31:42.201Z,26.10
2019-05-02T14:34:29.078Z,26.33
2019-05-02T14:36:59.235Z,30.05
2019-05-02T14:39:27.565Z,25.55
2019-05-02T14:41:54.853Z,27.87
2019-05-02T14:44:30.352Z,31.75
2019-05-02T14:46:53.427Z,26.62
2019-05-02T14:49:23.966Z,29.98
2019-05-02T14:51:49.839Z,27.62
2019-05-02T14:54:17.072Z,28.38
2019-05-02T14:56:53.674Z,20.27
2019-05-02T14:59:22.742Z,17.77
2019-05-02T15:01:57.813Z,16.20
2019-05-02T15:04:22.724Z,19.10
2019-05-02T15:06:52.329Z,22.87
2019-05-02T15:09:22.639Z,18.23
2019-05-02T15:11:57.243Z,12.78
2019-05-02T15:14:27.704Z,18.00
2019-05-02T15:16:58.218Z,17.87
2019-05-02T15:19:23.767Z,15.18
2019-05-02T15:21:52.521Z,12.58
2019-05-02T15:24:20.177Z,13.30
2019-05-02T15:26:47.898Z,15.90
2019-05-02T15:29:19.650Z,9.15
2019-05-02T15:31:52.461Z,14.90
2019-05-02T15:34:28.086Z,14.85
2019-05-02T15:36:55.312Z,12.47
2019-05-02T15:41:52.483Z,11.15
2019-05-02T15:44:23.577Z,13.03
2019-05-02T15:46:52.417Z,11.40
2019-05-02T15:49:19.924Z,15.53
2019-05-02T15:51:49.912Z,8.43
2019-05-02T15:54:18.906Z,9.93
2019-05-02T15:57:00.134Z,11.15
2019-05-02T15:59:37.631Z,13.83
2019-05-02T16:02:08.439Z,13.65
2019-05-02T16:04:37.328Z,18.27
2019-05-02T16:07:08.084Z,19.12
2019-05-02T16:09:33.784Z,24.00
2019-05-02T16:12:02.936Z,15.75
2019-05-02T16:14:34.120Z,16.70
2019-05-02T16:17:03.166Z,16.17
2019-05-02T16:19:32.764Z,15.25
2019-05-02T16:22:31.289Z,21.07
2019-05-02T16:24:58.512Z,23.60
2019-05-02T16:27:45.310Z,20.02
2019-05-02T16:30:14.487Z,18.37
2019-05-02T16:33:16.731Z,21.82
2019-05-02T16:35:37.474Z,24.85
2019-05-02T16:38:04.828Z,18.42
2019-05-02T16:40:34.667Z,23.35
2019-05-02T16:43:02.845Z,30.37
2019-05-02T16:45:32.741Z,30.08
2019-05-02T16:48:01.400Z,28.45
2019-05-02T16:50:35.174Z,28.25
2019-05-02T16:53:02.276Z,28.83
2019-05-02T16:55:29.757Z,33.83
2019-05-02T16:58:05.183Z,30.72
2019-05-02T17:00:27.013Z,28.30
2019-05-02T17:02:54.373Z,27.00
2019-05-02T17:05:22.114Z,24.50
2019-05-02T17:08:18.845Z,31.37
2019-05-02T17:10:55.474Z,24.10
2019-05-02T17:13:17.184Z,25.52
2019-05-02T17:15:44.422Z,27.65
2019-05-02T17:18:13.084Z,27.17
2019-05-02T17:20:40.883Z,27.37
2019-05-02T17:23:08.143Z,25.85
2019-05-02T17:25:35.419Z,27.93
2019-05-02T17:28:08.457Z,25.85
2019-05-02T17:30:38.623Z,23.85
2019-05-02T17:33:01.861Z,26.65
2019-05-02T17:35:29.519Z,25.40
2019-05-02T17:37:56.743Z,26.07
2019-05-02T17:40:26.039Z,25.88
2019-05-02T17:42:57.281Z,24.37
2019-05-02T17:45:23.909Z,23.70
2019-05-02T17:47:51.437Z,24.55
2019-05-02T17:50:36.848Z,17.75
2019-05-02T17:53:04.798Z,19.73
2019-05-02T17:55:40.312Z,11.85
2019-05-02T17:58:04.564Z,17.20
2019-05-02T18:00:35.404Z,17.00
2019-05-02T18:03:02.793Z,14.15
2019-05-02T18:05:32.114Z,15.75
2019-05-02T18:07:59.355Z,11.20
2019-05-02T18:10:26.679Z,10.53
2019-05-02T18:12:58.788Z,10.53
2019-05-02T18:15:23.164Z,11.30
2019-05-02T18:17:52.206Z,9.85
2019-05-02T18:20:21.825Z,12.73
2019-05-02T18:22:49.187Z,10.75
2019-05-02T18:25:20.926Z,11.68
2019-05-02T18:27:45.599Z,7.95
2019-05-02T18:30:22.837Z,11.00
2019-05-02T18:32:48.440Z,10.45
2019-05-02T18:35:15.691Z,10.03
2019-05-02T18:37:46.786Z,9.78
2019-05-02T18:40:12.815Z,8.68
2019-05-02T18:42:40.059Z,12.20
2019-05-02T18:45:12.653Z,13.30
2019-05-02T18:47:41.788Z,11.75
2019-05-02T18:50:36.792Z,11.48
2019-05-02T18:53:06.681Z,13.10
2019-05-02T18:55:34.596Z,11.75
2019-05-02T18:58:05.382Z,39.10
2019-05-02T19:00:36.112Z,301.65
2019-05-02T19:03:02.611Z,18.77
2019-05-02T19:05:29.983Z,12.78
2019-05-02T19:07:57.227Z,10.68
2019-05-02T19:10:24.694Z,12.45
2019-05-02T19:12:56.223Z,14.70
2019-05-02T19:15:21.691Z,13.53
2019-05-02T19:17:49.140Z,17.07
2019-05-02T19:20:38.871Z,15.20
2019-05-02T19:23:06.119Z,13.65
2019-05-02T19:25:33.401Z,17.65
2019-05-02T19:28:12.214Z,17.75
2019-05-02T19:30:42.271Z,24.57
2019-05-02T19:33:09.262Z,18.80
2019-05-02T19:35:37.642Z,18.35
2019-05-02T19:38:05.730Z,18.20
2019-05-02T19:40:32.973Z,12.43
2019-05-02T19:43:06.120Z,12.03
2019-05-02T19:45:32.764Z,17.23
2019-05-02T19:48:00.160Z,10.20
2019-05-02T19:50:43.034Z,8.45
2019-05-02T19:53:17.122Z,11.95
2019-05-02T19:55:35.760Z,9.80
2019-05-02T19:58:06.423Z,6.80
2019-05-02T20:00:36.551Z,6.33
2019-05-02T20:03:03.047Z,6.27
2019-05-02T20:05:32.171Z,5.35
2019-05-02T20:07:59.557Z,4.93
2019-05-02T20:10:26.767Z,8.00
2019-05-02T20:12:54.115Z,5.40
2019-05-02T20:15:26.829Z,4.30
2019-05-02T20:17:55.311Z,4.83
2019-05-02T20:20:56.669Z,4.90
2019-05-02T20:23:31.828Z,4.73
2019-05-02T20:25:53.155Z,4.27
2019-05-02T20:28:21.857Z,3.80
2019-05-02T20:30:49.321Z,4.50
2019-05-02T20:33:16.561Z,3.80
2019-05-02T20:35:43.796Z,4.90
2019-05-02T20:38:11.832Z,4.33
2019-05-02T20:40:40.279Z,4.33
2019-05-02T20:43:07.548Z,4.78
2019-05-02T20:45:34.842Z,4.15
2019-05-02T20:48:02.306Z,3.70
2019-05-02T20:50:31.689Z,3.72
2019-05-02T20:52:58.841Z,3.77
2019-05-02T20:55:26.217Z,3.75
2019-05-02T20:57:53.655Z,3.70
2019-05-02T21:00:23.792Z,3.47
2019-05-02T21:02:51.901Z,2.73
2019-05-02T21:05:24.284Z,3.50
2019-05-02T21:08:10.327Z,3.60
2019-05-02T21:10:41.634Z,2.40
2019-05-02T21:13:09.320Z,5.73
2019-05-02T21:15:36.669Z,3.27
2019-05-02T21:18:03.903Z,3.27
2019-05-02T21:20:32.543Z,3.53
2019-05-02T21:23:01.848Z,4.33
2019-05-02T21:25:29.027Z,3.47
2019-05-02T21:27:56.272Z,4.03
2019-05-02T21:30:25.546Z,3.90
2019-05-02T21:32:52.787Z,5.47
2019-05-02T21:35:20.027Z,3.60
2019-05-02T21:37:47.274Z,5.07
2019-05-02T21:40:14.722Z,4.40
2019-05-02T21:42:42.567Z,4.70
2019-05-02T21:45:10.116Z,5.07
2019-05-02T21:47:37.359Z,5.63
2019-05-02T21:50:21.782Z,4.57
2019-05-02T21:53:17.452Z,4.17
2019-05-02T21:55:56.991Z,4.43
2019-05-02T21:58:24.231Z,5.33
2019-05-02T22:01:05.423Z,3.93
2019-05-02T22:03:32.656Z,4.07
2019-05-02T22:05:59.904Z,4.73
2019-05-02T22:08:27.739Z,3.63
2019-05-02T22:10:54.982Z,3.70
2019-05-02T22:13:22.332Z,6.10
2019-05-02T22:15:51.530Z,3.65
2019-05-02T22:18:18.792Z,4.27
2019-05-02T22:20:46.052Z,3.33
2019-05-02T22:23:13.294Z,3.60
2019-05-02T22:25:41.964Z,3.43
2019-05-02T22:28:09.321Z,3.47
2019-05-02T22:30:36.545Z,3.80
2019-05-02T22:33:03.878Z,4.17
2019-05-02T22:35:31.129Z,4.80
2019-05-02T22:38:04.072Z,3.90
2019-05-02T22:40:32.375Z,3.77
2019-05-02T22:43:01.944Z,3.27
2019-05-02T22:45:29.079Z,3.23
2019-05-02T22:47:56.309Z,3.10
2019-05-02T22:50:23.573Z,3.53
2019-05-02T22:52:52.205Z,2.70
2019-05-02T22:55:19.648Z,3.63
2019-05-02T22:57:46.899Z,2.80
2019-05-02T23:00:14.129Z,4.33
2019-05-02T23:02:41.889Z,2.77
2019-05-02T23:05:09.849Z,2.83
2019-05-02T23:07:41.808Z,2.77
2019-05-02T23:10:09.203Z,3.77
2019-05-02T23:12:36.490Z,3.87
2019-05-02T23:15:03.978Z,4.77
2019-05-02T23:17:32.135Z,3.20
2019-05-02T23:19:59.531Z,3.90
2019-05-02T23:22:26.752Z,4.03
2019-05-02T23:25:19.125Z,3.47
2019-05-02T23:27:52.710Z,3.60
2019-05-02T23:30:22.531Z,5.27
2019-05-02T23:32:51.658Z,4.97
2019-05-02T23:35:19.151Z,4.77
2019-05-02T23:37:46.375Z,6.50
2019-05-02T23:40:14.351Z,6.73
2019-05-02T23:42:41.766Z,5.37
2019-05-02T23:45:09.286Z,6.17
2019-05-02T23:47:36.519Z,9.30
2019-05-02T23:50:04.338Z,7.77
2019-05-02T23:52:31.696Z,8.03
2019-05-02T23:54:58.996Z,7.57
2019-05-02T23:57:26.231Z,8.77
2019-05-02T23:59:53.502Z,11.27
